Time;durP1;ratioP1;P1;durP2;ratioP2;P2;SDS_P1;SDS_P2;PMS_P1;PMS_P2;Temp;Humidity;BMP_temperature;BMP_pressure;BME280_temperature;BME280_humidity;BME280_pressure;Samples;Min_cycle;Max_cycle;Signal;HPM_P1;HPM_P2
2023/11/27 00:01:26;;;;;;;6.43;5.33;;;15.90;61.70;;;;;;5034583;28;20482;-77
2023/11/27 00:03:55;;;;;;;7.00;5.20;;;15.90;61.70;;;;;;5030494;28;20451;-78
2023/11/27 00:06:23;;;;;;;5.33;4.60;;;15.90;61.80;;;;;;5034115;28;20439;-78
2023/11/27 00:08:51;;;;;;;6.23;5.10;;;15.90;61.80;;;;;;5031162;28;20467;-78
2023/11/27 00:11:19;;;;;;;6.40;4.80;;;15.90;61.80;;;;;;5036802;28;20486;-78
2023/11/27 00:13:48;;;;;;;7.13;4.90;;;15.90;61.70;;;;;;5036807;28;20458;-77
2023/11/27 00:16:17;;;;;;;5.87;4.80;;;15.90;61.50;;;;;;5030190;28;20522;-78
2023/11/27 00:18:46;;;;;;;5.63;4.50;;;15.90;61.60;;;;;;5028787;28;20446;-78
2023/11/27 00:21:14;;;;;;;7.27;5.07;;;15.90;61.60;;;;;;5032461;28;20503;-79
2023/11/27 00:23:42;;;;;;;6.90;5.37;;;15.90;61.60;;;;;;5031091;28;20436;-78
2023/11/27 00:26:11;;;;;;;5.83;4.20;;;15.90;61.70;;;;;;5029636;28;20448;-79
2023/11/27 00:28:39;;;;;;;6.00;4.20;;;15.90;61.80;;;;;;5031743;28;20435;-76
2023/11/27 00:31:09;;;;;;;5.47;4.50;;;15.90;61.80;;;;;;5037585;28;20502;-79
2023/11/27 00:33:38;;;;;;;5.00;4.00;;;15.90;61.70;;;;;;5020764;28;20441;-79
2023/11/27 00:36:08;;;;;;;6.07;4.47;;;15.90;61.70;;;;;;5034289;28;20533;-80
2023/11/27 00:38:37;;;;;;;5.23;4.40;;;15.90;61.80;;;;;;5035164;28;20447;-78
2023/11/27 00:41:07;;;;;;;6.60;4.70;;;15.90;61.80;;;;;;5029281;28;20562;-79
2023/11/27 00:43:35;;;;;;;5.10;4.30;;;15.90;61.70;;;;;;5037817;28;20548;-79
2023/11/27 00:46:03;;;;;;;6.90;4.93;;;15.90;61.90;;;;;;5032868;28;20582;-79
2023/11/27 00:48:31;;;;;;;7.63;4.07;;;15.90;61.80;;;;;;5038578;28;20455;-78
2023/11/27 00:51:01;;;;;;;5.20;4.70;;;15.90;61.90;;;;;;5035427;28;20483;-78
2023/11/27 00:53:29;;;;;;;5.67;4.40;;;15.90;61.80;;;;;;5041231;28;20478;-78
2023/11/27 00:55:57;;;;;;;6.53;4.27;;;15.90;61.70;;;;;;5034724;28;20471;-78
2023/11/27 00:58:24;;;;;;;4.23;3.60;;;15.90;61.90;;;;;;5036439;28;20477;-77
2023/11/27 01:00:55;;;;;;;5.57;4.80;;;15.90;61.70;;;;;;5024261;28;20503;-79
2023/11/27 01:03:22;;;;;;;4.40;4.00;;;15.90;61.80;;;;;;5038660;28;20436;-78
2023/11/27 01:05:51;;;;;;;6.27;4.43;;;15.90;61.90;;;;;;5037221;28;20480;-78
2023/11/27 01:08:21;;;;;;;4.90;4.33;;;15.90;61.80;;;;;;5037662;28;20440;-78
2023/11/27 01:10:50;;;;;;;5.43;4.50;;;15.90;61.70;;;;;;5038432;28;20431;-78
2023/11/27 01:13:17;;;;;;;4.80;4.27;;;15.90;62.00;;;;;;5031815;28;20470;-79
2023/11/27 01:15:46;;;;;;;4.40;4.10;;;15.90;62.00;;;;;;5026829;28;20440;-78
2023/11/27 01:18:14;;;;;;;6.03;4.63;;;15.90;61.80;;;;;;5039958;28;20454;-78
2023/11/27 01:20:42;;;;;;;4.83;4.33;;;15.80;62.00;;;;;;5028486;28;20446;-78
2023/11/27 01:23:10;;;;;;;4.67;3.90;;;15.90;62.10;;;;;;5035735;28;20550;-77
2023/11/27 01:25:40;;;;;;;4.60;4.00;;;15.80;62.20;;;;;;5030857;28;20482;-78
2023/11/27 01:28:09;;;;;;;4.20;3.80;;;15.90;62.10;;;;;;5038397;28;20435;-78
2023/11/27 01:30:37;;;;;;;4.60;4.10;;;15.90;62.10;;;;;;5033918;28;20471;-77
2023/11/27 01:33:05;;;;;;;4.40;4.00;;;15.90;62.00;;;;;;5025848;28;20558;-79
2023/11/27 01:35:33;;;;;;;5.13;4.00;;;15.90;62.10;;;;;;5034887;28;20486;-78
2023/11/27 01:38:01;;;;;;;3.70;3.40;;;15.90;62.00;;;;;;5037366;28;20517;-79
2023/11/27 01:40:29;;;;;;;4.10;3.70;;;15.90;61.90;;;;;;5038026;28;20435;-79
2023/11/27 01:42:59;;;;;;;4.60;3.90;;;15.90;61.90;;;;;;5037492;28;20484;-79
2023/11/27 01:45:30;;;;;;;4.17;3.77;;;15.90;61.90;;;;;;5030472;28;20477;-79
2023/11/27 01:47:58;;;;;;;5.30;4.13;;;15.90;62.00;;;;;;5038104;28;20468;-79
2023/11/27 01:50:26;;;;;;;3.43;3.13;;;15.90;62.10;;;;;;5036669;28;20458;-78
2023/11/27 01:52:54;;;;;;;6.20;3.87;;;15.90;62.00;;;;;;5055486;22;20579;-79
2023/11/27 01:55:22;;;;;;;3.83;3.53;;;15.90;61.90;;;;;;5029467;28;20432;-79
2023/11/27 01:57:50;;;;;;;4.97;4.13;;;15.90;61.90;;;;;;5037786;28;20449;-79
2023/11/27 02:00:20;;;;;;;4.37;3.70;;;15.80;61.90;;;;;;5038583;28;20450;-79
2023/11/27 02:02:50;;;;;;;6.30;4.20;;;15.80;62.10;;;;;;5032295;28;20541;-78
2023/11/27 02:05:18;;;;;;;7.30;3.87;;;15.80;62.20;;;;;;5027788;28;20451;-79
2023/11/27 02:07:45;;;;;;;4.60;4.13;;;15.80;62.20;;;;;;5020045;28;20452;-80
2023/11/27 02:10:14;;;;;;;4.90;4.00;;;15.80;62.00;;;;;;5031474;28;20432;-81
2023/11/27 02:12:48;;;;;;;5.00;3.87;;;15.80;62.30;;;;;;5045808;28;20479;-80
2023/11/27 02:15:16;;;;;;;4.60;4.10;;;15.90;62.10;;;;;;5043322;28;20448;-80
2023/11/27 02:17:45;;;;;;;4.70;3.90;;;15.90;62.30;;;;;;5048691;28;20470;-80
2023/11/27 02:20:14;;;;;;;4.60;4.10;;;15.90;62.20;;;;;;5046697;28;20449;-79
2023/11/27 02:22:42;;;;;;;3.63;3.33;;;15.90;62.20;;;;;;5038389;28;20527;-81
2023/11/27 02:25:11;;;;;;;4.30;3.87;;;15.90;62.20;;;;;;5042347;28;20432;-80
2023/11/27 02:27:40;;;;;;;5.37;4.57;;;15.90;62.20;;;;;;5044310;28;20528;-80
2023/11/27 02:30:11;;;;;;;4.73;4.07;;;15.90;62.20;;;;;;5044193;28;20502;-79
2023/11/27 02:32:40;;;;;;;4.20;3.80;;;15.90;61.90;;;;;;5042598;28;20493;-79
2023/11/27 02:35:09;;;;;;;5.37;4.90;;;15.90;62.00;;;;;;5045368;28;20447;-78
2023/11/27 02:37:37;;;;;;;4.90;4.10;;;15.80;62.20;;;;;;5041890;28;20478;-79
2023/11/27 02:40:10;;;;;;;4.27;3.87;;;15.90;62.40;;;;;;5041308;28;20449;-82
2023/11/27 02:42:40;;;;;;;5.43;4.23;;;15.90;62.30;;;;;;5047803;28;20472;-79
2023/11/27 02:45:10;;;;;;;4.53;3.67;;;15.90;62.20;;;;;;5041689;28;20456;-79
2023/11/27 02:47:38;;;;;;;4.73;3.90;;;15.90;62.20;;;;;;5035672;28;20448;-79
2023/11/27 02:50:08;;;;;;;8.20;3.90;;;15.90;62.30;;;;;;5046794;28;20451;-79
2023/11/27 02:52:36;;;;;;;4.40;4.00;;;15.90;62.00;;;;;;5034689;28;20476;-80
2023/11/27 02:55:05;;;;;;;4.43;4.03;;;15.90;62.20;;;;;;5039791;28;20447;-81
2023/11/27 02:57:33;;;;;;;5.17;4.40;;;15.90;62.10;;;;;;5041273;28;20444;-79
2023/11/27 03:00:03;;;;;;;6.90;4.37;;;15.90;62.10;;;;;;5040061;28;20448;-79
2023/11/27 03:02:33;;;;;;;5.47;4.67;;;15.90;62.00;;;;;;5031462;28;20483;-79
2023/11/27 03:05:02;;;;;;;6.03;4.80;;;15.80;61.90;;;;;;5025089;28;20445;-79
2023/11/27 03:07:31;;;;;;;6.77;5.00;;;15.80;62.10;;;;;;5030853;28;20477;-79
2023/11/27 03:09:59;;;;;;;7.73;4.83;;;15.80;62.20;;;;;;5021923;28;20490;-79
2023/11/27 03:12:27;;;;;;;5.50;4.70;;;15.80;62.10;;;;;;5042158;28;20463;-82
2023/11/27 03:14:55;;;;;;;7.07;5.20;;;15.80;61.90;;;;;;5040406;28;20448;-79
2023/11/27 03:17:25;;;;;;;6.13;5.33;;;15.80;62.00;;;;;;5047306;28;20518;-80
2023/11/27 03:19:53;;;;;;;4.87;4.27;;;15.80;62.10;;;;;;5039947;28;20444;-81
2023/11/27 03:22:23;;;;;;;6.00;5.20;;;15.80;62.40;;;;;;5045019;28;20506;-79
2023/11/27 03:24:54;;;;;;;8.37;5.20;;;15.80;62.40;;;;;;5049027;28;20498;-78
2023/11/27 03:27:23;;;;;;;6.67;5.13;;;15.80;62.00;;;;;;5034175;28;20946;-80
2023/11/27 03:29:52;;;;;;;5.00;4.50;;;15.80;62.40;;;;;;5023708;28;20460;-79
2023/11/27 03:32:20;;;;;;;5.97;4.77;;;15.80;62.30;;;;;;5029296;28;20463;-80
2023/11/27 03:34:49;;;;;;;5.97;5.10;;;15.80;62.20;;;;;;5031160;28;20459;-79
2023/11/27 03:37:18;;;;;;;7.60;5.20;;;15.80;62.30;;;;;;5039389;28;20444;-79
2023/11/27 03:39:46;;;;;;;5.40;4.90;;;15.80;62.40;;;;;;5052028;28;20469;-79
2023/11/27 03:42:15;;;;;;;6.57;4.87;;;15.80;62.20;;;;;;5048729;28;20459;-79
2023/11/27 03:44:43;;;;;;;6.40;5.17;;;15.80;62.00;;;;;;5047569;28;20474;-79
2023/11/27 03:47:12;;;;;;;5.63;5.00;;;15.80;62.30;;;;;;5048478;28;20474;-79
2023/11/27 03:49:40;;;;;;;8.60;5.67;;;15.80;62.10;;;;;;5047046;28;20435;-79
2023/11/27 03:52:09;;;;;;;5.50;4.90;;;15.80;62.30;;;;;;5044675;28;20483;-79
2023/11/27 03:54:38;;;;;;;7.90;5.30;;;15.80;62.10;;;;;;5035596;28;20459;-78
2023/11/27 03:57:06;;;;;;;6.00;5.40;;;15.80;62.30;;;;;;5035492;28;20451;-78
2023/11/27 03:59:34;;;;;;;6.63;5.37;;;15.80;62.40;;;;;;5043352;28;20428;-79
2023/11/27 04:02:02;;;;;;;7.10;5.30;;;15.80;62.20;;;;;;5044927;28;20480;-78
2023/11/27 04:04:31;;;;;;;9.73;6.30;;;15.80;62.20;;;;;;5044154;28;20455;-78
2023/11/27 04:07:00;;;;;;;8.90;6.30;;;15.70;62.10;;;;;;5020401;28;20459;-79
2023/11/27 04:09:30;;;;;;;9.60;6.10;;;15.80;62.30;;;;;;5031931;28;20443;-77
2023/11/27 04:11:58;;;;;;;10.17;6.40;;;15.80;62.30;;;;;;5035391;28;20522;-77
2023/11/27 04:14:26;;;;;;;9.30;7.10;;;15.70;62.00;;;;;;5019397;28;20482;-78
2023/11/27 04:16:55;;;;;;;10.90;6.80;;;15.70;62.10;;;;;;5023230;28;20492;-77
2023/11/27 04:19:23;;;;;;;9.63;6.40;;;15.70;62.00;;;;;;5031725;28;20447;-77
2023/11/27 04:21:52;;;;;;;9.43;6.70;;;15.70;61.80;;;;;;5015222;28;20452;-77
2023/11/27 04:24:20;;;;;;;10.20;6.50;;;15.70;62.10;;;;;;5031260;28;20633;-77
2023/11/27 04:26:50;;;;;;;10.43;7.40;;;15.70;62.00;;;;;;5031678;28;20443;-77
2023/11/27 04:29:18;;;;;;;11.30;7.33;;;15.70;62.00;;;;;;5024664;28;20511;-79
2023/11/27 04:31:46;;;;;;;11.37;6.83;;;15.70;62.10;;;;;;5026564;28;20511;-78
2023/11/27 04:34:15;;;;;;;11.33;7.57;;;15.70;62.10;;;;;;5038655;28;20445;-78
2023/11/27 04:36:44;;;;;;;10.97;7.17;;;15.70;62.30;;;;;;5030661;28;20457;-78
2023/11/27 04:39:14;;;;;;;7.40;6.60;;;15.70;62.00;;;;;;5019884;28;20439;-78
2023/11/27 04:41:42;;;;;;;10.03;6.90;;;15.60;61.80;;;;;;5015962;28;20449;-79
2023/11/27 04:44:12;;;;;;;9.23;7.00;;;15.60;62.00;;;;;;5034132;28;20471;-77
2023/11/27 04:46:41;;;;;;;10.10;7.20;;;15.60;62.10;;;;;;5023735;28;20503;-77
2023/11/27 04:49:11;;;;;;;16.10;7.83;;;15.60;61.90;;;;;;5021530;28;20453;-77
2023/11/27 04:51:40;;;;;;;12.07;6.90;;;15.60;61.90;;;;;;5027756;28;20448;-77
2023/11/27 04:54:08;;;;;;;10.40;7.83;;;15.60;61.80;;;;;;5042082;28;20471;-79
2023/11/27 04:56:36;;;;;;;9.43;7.60;;;15.60;61.80;;;;;;5042079;28;20474;-78
2023/11/27 04:59:05;;;;;;;13.57;8.40;;;15.60;62.10;;;;;;5025027;28;20498;-78
2023/11/27 05:01:36;;;;;;;11.40;7.30;;;15.60;61.90;;;;;;5049255;28;20441;-78
2023/11/27 05:04:04;;;;;;;9.63;7.40;;;15.60;61.50;;;;;;5027426;28;20470;-77
2023/11/27 05:06:33;;;;;;;11.73;7.67;;;15.60;61.80;;;;;;5042990;28;20475;-78
2023/11/27 05:09:02;;;;;;;11.80;7.77;;;15.60;61.70;;;;;;5027231;28;20443;-77
2023/11/27 05:11:30;;;;;;;13.10;8.03;;;15.60;61.90;;;;;;5028345;28;20516;-78
2023/11/27 05:13:59;;;;;;;8.80;7.13;;;15.60;61.90;;;;;;5031651;28;20456;-77
2023/11/27 05:16:27;;;;;;;9.93;7.17;;;15.60;61.80;;;;;;5025535;28;20955;-78
2023/11/27 05:18:56;;;;;;;12.17;7.40;;;15.60;61.90;;;;;;5029525;28;20437;-77
2023/11/27 05:21:24;;;;;;;9.97;7.63;;;15.60;61.50;;;;;;5037413;28;20447;-78
2023/11/27 05:23:53;;;;;;;10.93;7.60;;;15.50;61.40;;;;;;5049924;28;20470;-77
2023/11/27 05:26:21;;;;;;;9.70;6.90;;;15.50;61.80;;;;;;5056088;28;20461;-77
2023/11/27 05:28:49;;;;;;;12.03;7.20;;;15.50;61.50;;;;;;5021537;28;20527;-78
2023/11/27 05:31:17;;;;;;;11.00;7.00;;;15.50;61.80;;;;;;5021084;28;20550;-78
2023/11/27 05:33:46;;;;;;;10.00;7.43;;;15.50;61.40;;;;;;5028191;28;20544;-78
2023/11/27 05:36:15;;;;;;;10.20;7.27;;;15.50;61.80;;;;;;5032882;28;20460;-77
2023/11/27 05:38:43;;;;;;;9.60;7.40;;;15.60;61.90;;;;;;5027044;28;20526;-77
2023/11/27 05:41:12;;;;;;;8.47;6.27;;;15.50;61.80;;;;;;5029544;28;20440;-77
2023/11/27 05:43:41;;;;;;;10.80;6.90;;;15.50;61.60;;;;;;5031160;28;20485;-77
2023/11/27 05:46:10;;;;;;;10.10;6.63;;;15.50;61.70;;;;;;5018529;28;20444;-78
2023/11/27 05:48:38;;;;;;;7.53;6.30;;;15.50;61.50;;;;;;5022178;28;20451;-78
2023/11/27 05:51:07;;;;;;;11.87;6.33;;;15.50;61.50;;;;;;5023722;28;20518;-78
2023/11/27 05:53:37;;;;;;;12.53;6.53;;;15.50;61.50;;;;;;5033192;28;20493;-78
2023/11/27 05:56:05;;;;;;;7.33;5.87;;;15.50;61.40;;;;;;5023308;28;20447;-79
2023/11/27 05:58:33;;;;;;;8.03;6.40;;;15.50;61.50;;;;;;5033592;28;20506;-79
2023/11/27 06:01:01;;;;;;;11.67;7.63;;;15.50;61.90;;;;;;5037133;28;20475;-78
2023/11/27 06:03:28;;;;;;;9.53;7.50;;;15.50;61.80;;;;;;5016001;28;20480;-78
2023/11/27 06:05:57;;;;;;;10.20;8.07;;;15.50;61.70;;;;;;5021615;28;20437;-78
2023/11/27 06:08:25;;;;;;;9.03;7.33;;;15.50;61.40;;;;;;5017143;28;20448;-77
2023/11/27 06:10:54;;;;;;;11.23;7.97;;;15.50;61.70;;;;;;5031518;28;20490;-78
2023/11/27 06:13:22;;;;;;;12.60;8.60;;;15.50;61.50;;;;;;5015743;28;20488;-77
2023/11/27 06:15:50;;;;;;;13.63;9.13;;;15.40;61.70;;;;;;5036355;28;20503;-77
2023/11/27 06:18:18;;;;;;;14.03;9.50;;;15.50;61.40;;;;;;5022740;28;20445;-78
2023/11/27 06:20:48;;;;;;;15.67;9.13;;;15.50;61.60;;;;;;5022682;28;20441;-78
2023/11/27 06:23:16;;;;;;;14.60;9.97;;;15.40;61.60;;;;;;5024310;28;20468;-77
2023/11/27 06:25:44;;;;;;;15.00;9.40;;;15.50;61.40;;;;;;5035717;28;20482;-77
2023/11/27 06:28:14;;;;;;;15.47;9.80;;;15.40;61.50;;;;;;5018407;28;20444;-78
2023/11/27 06:30:42;;;;;;;14.13;9.30;;;15.40;61.50;;;;;;5023327;28;20441;-77
2023/11/27 06:33:11;;;;;;;15.67;10.13;;;15.40;61.40;;;;;;5021741;28;20456;-78
2023/11/27 06:35:40;;;;;;;15.80;9.67;;;15.40;61.40;;;;;;5023626;28;20447;-78
2023/11/27 06:38:08;;;;;;;15.30;9.70;;;15.40;61.40;;;;;;5021402;28;20441;-79
2023/11/27 06:40:37;;;;;;;14.77;9.70;;;15.40;61.40;;;;;;5023181;28;20439;-80
2023/11/27 06:43:16;;;;;;;14.93;9.70;;;15.40;61.20;;;;;;5025203;28;20474;-79
2023/11/27 06:45:45;;;;;;;16.17;10.40;;;15.40;61.20;;;;;;5028531;28;20476;-80
2023/11/27 06:48:13;;;;;;;16.23;10.30;;;15.40;61.60;;;;;;5020646;28;20462;-78
2023/11/27 06:50:42;;;;;;;14.00;9.40;;;15.40;61.00;;;;;;5019854;28;20503;-78
2023/11/27 06:53:11;;;;;;;14.57;8.90;;;15.30;61.10;;;;;;5006046;28;20840;-79
2023/11/27 06:55:41;;;;;;;16.87;10.00;;;15.30;61.20;;;;;;5022143;28;20444;-78
2023/11/27 06:58:10;;;;;;;16.60;10.23;;;15.30;61.20;;;;;;5029571;28;20454;-78
2023/11/27 07:00:41;;;;;;;14.87;9.37;;;15.30;61.20;;;;;;5021931;28;20456;-78
2023/11/27 07:03:10;;;;;;;14.40;9.47;;;15.30;61.20;;;;;;5024662;28;20503;-79
2023/11/27 07:05:38;;;;;;;16.10;9.70;;;15.30;61.30;;;;;;5037369;28;20467;-79
2023/11/27 07:08:07;;;;;;;13.03;8.33;;;15.30;61.30;;;;;;5034953;28;20451;-78
2023/11/27 07:10:36;;;;;;;13.47;8.60;;;15.30;61.30;;;;;;5030282;28;20441;-79
2023/11/27 07:13:05;;;;;;;12.70;8.63;;;15.30;61.00;;;;;;5033702;28;20455;-78
2023/11/27 07:15:34;;;;;;;12.00;8.53;;;15.30;61.30;;;;;;5017485;28;20445;-77
2023/11/27 07:18:05;;;;;;;12.90;8.40;;;15.30;61.30;;;;;;5028339;28;20474;-78
2023/11/27 07:20:46;;;;;;;13.70;8.30;;;15.30;61.30;;;;;;5038686;28;20461;-78
2023/11/27 07:23:14;;;;;;;11.40;8.13;;;15.30;61.10;;;;;;5010011;28;20536;-77
2023/11/27 07:25:43;;;;;;;12.30;8.20;;;15.30;61.20;;;;;;5027432;28;20983;-78
2023/11/27 07:28:12;;;;;;;12.03;7.80;;;15.30;61.30;;;;;;5030532;28;20444;-77
2023/11/27 07:30:41;;;;;;;11.37;7.27;;;15.30;61.00;;;;;;5023387;28;20477;-78
2023/11/27 07:35:54;;;;;;;11.13;7.50;;;15.30;61.00;;;;;;5018585;28;20445;-77
2023/11/27 07:38:22;;;;;;;12.50;7.90;;;15.30;61.00;;;;;;5026299;28;20473;-79
2023/11/27 07:40:52;;;;;;;11.70;7.13;;;15.30;61.00;;;;;;5033691;28;20444;-78
2023/11/27 07:43:20;;;;;;;9.83;7.43;;;15.30;61.10;;;;;;5018057;28;20468;-78
2023/11/27 07:48:48;;;;;;;10.90;6.90;;;15.30;61.20;;;;;;5030760;28;20428;-77
2023/11/27 07:51:17;;;;;;;12.10;7.70;;;15.30;61.00;;;;;;5031109;28;20444;-78
2023/11/27 07:53:47;;;;;;;9.80;6.80;;;15.30;60.80;;;;;;5016573;28;20464;-77
2023/11/27 07:56:25;;;;;;;10.40;6.43;;;15.30;61.00;;;;;;5025226;28;20451;-77
2023/11/27 07:58:54;;;;;;;9.80;7.17;;;15.30;61.00;;;;;;5027402;28;20446;-76
2023/11/27 08:01:23;;;;;;;8.40;6.83;;;15.30;61.00;;;;;;5028996;28;20506;-76
2023/11/27 08:03:53;;;;;;;6.47;5.67;;;15.30;61.00;;;;;;5030372;28;20478;-76
2023/11/27 08:06:22;;;;;;;8.57;6.30;;;15.30;61.00;;;;;;5030549;28;20506;-76
2023/11/27 08:08:50;;;;;;;8.27;6.70;;;15.30;61.00;;;;;;5025057;28;20449;-76
2023/11/27 08:11:29;;;;;;;7.90;6.40;;;15.30;60.70;;;;;;5015229;28;20474;-76
2023/11/27 08:13:58;;;;;;;7.97;5.93;;;15.30;61.00;;;;;;5037060;28;20514;-76
2023/11/27 08:16:27;;;;;;;8.03;6.00;;;15.30;60.90;;;;;;5015708;28;20447;-77
2023/11/27 08:18:57;;;;;;;10.03;6.87;;;15.30;60.80;;;;;;5025067;28;21255;-76
2023/11/27 08:21:25;;;;;;;8.73;6.17;;;15.30;60.60;;;;;;5024325;28;20451;-76
2023/11/27 08:23:53;;;;;;;8.20;5.80;;;15.30;60.90;;;;;;5035243;28;20475;-76
2023/11/27 08:26:27;;;;;;;7.63;5.70;;;15.20;60.60;;;;;;5036938;28;20475;-76
2023/11/27 08:28:56;;;;;;;7.43;5.90;;;15.20;60.70;;;;;;5039410;28;20478;-76
2023/11/27 08:31:28;;;;;;;7.63;5.90;;;15.20;60.50;;;;;;5026717;28;20482;-76
2023/11/27 08:33:59;;;;;;;6.97;5.80;;;15.20;60.40;;;;;;5026493;28;20460;-76
2023/11/27 08:36:28;;;;;;;6.30;5.33;;;15.20;60.30;;;;;;5040670;28;20527;-76
2023/11/27 08:38:57;;;;;;;8.87;5.73;;;15.20;60.50;;;;;;5037802;28;20474;-76
2023/11/27 08:41:27;;;;;;;7.60;5.70;;;15.20;60.20;;;;;;5020163;28;20497;-75
2023/11/27 08:43:56;;;;;;;5.87;5.27;;;15.10;59.90;;;;;;5026353;28;20472;-76
2023/11/27 08:46:25;;;;;;;10.37;5.53;;;15.10;60.30;;;;;;5026378;28;20477;-76
2023/11/27 08:48:56;;;;;;;5.17;4.77;;;15.20;60.20;;;;;;5029161;28;20511;-76
2023/11/27 08:51:27;;;;;;;6.00;4.90;;;15.10;60.00;;;;;;5027964;28;20451;-75
2023/11/27 08:53:56;;;;;;;4.63;4.20;;;15.10;59.90;;;;;;5022693;28;20476;-75
2023/11/27 08:56:26;;;;;;;6.33;5.43;;;15.10;60.10;;;;;;5021205;28;20447;-75
2023/11/27 08:58:56;;;;;;;5.43;4.93;;;15.10;60.20;;;;;;5026377;28;20462;-75
2023/11/27 09:01:25;;;;;;;5.27;4.27;;;15.10;59.90;;;;;;5034277;28;20440;-75
2023/11/27 09:03:53;;;;;;;4.67;4.27;;;15.10;59.90;;;;;;5025681;28;20472;-76
2023/11/27 09:06:23;;;;;;;5.07;4.57;;;15.10;60.00;;;;;;5033563;28;20506;-75
2023/11/27 09:08:53;;;;;;;4.60;4.20;;;15.10;59.90;;;;;;5031423;28;20451;-75
2023/11/27 09:11:22;;;;;;;4.73;4.23;;;15.10;59.70;;;;;;5029653;28;20452;-76
2023/11/27 09:13:53;;;;;;;6.27;4.20;;;15.10;59.90;;;;;;5032070;28;20543;-75
2023/11/27 09:16:21;;;;;;;4.60;4.10;;;15.10;59.70;;;;;;5033816;28;20486;-75
2023/11/27 09:18:50;;;;;;;5.27;4.47;;;15.10;60.00;;;;;;5031618;28;20447;-76
2023/11/27 09:21:19;;;;;;;4.47;4.07;;;15.10;59.60;;;;;;5033850;28;20482;-75
2023/11/27 09:23:47;;;;;;;5.23;3.90;;;15.10;59.70;;;;;;5033659;28;20471;-75
2023/11/27 09:26:18;;;;;;;4.47;4.07;;;15.10;59.80;;;;;;5033461;28;20582;-75
2023/11/27 09:28:47;;;;;;;4.13;3.77;;;15.10;59.80;;;;;;5033937;28;20501;-76
2023/11/27 09:31:17;;;;;;;4.30;3.90;;;15.10;59.60;;;;;;5033456;28;20533;-76
2023/11/27 09:33:46;;;;;;;4.10;3.80;;;15.10;59.80;;;;;;5037627;28;20499;-75
2023/11/27 09:36:16;;;;;;;3.33;3.13;;;15.10;59.80;;;;;;5040276;28;20447;-75
2023/11/27 09:38:44;;;;;;;4.20;3.90;;;15.10;59.80;;;;;;5039304;28;20435;-76
2023/11/27 09:41:13;;;;;;;4.80;4.03;;;15.10;59.80;;;;;;5040089;28;20478;-76
2023/11/27 09:43:43;;;;;;;4.77;4.07;;;15.10;59.70;;;;;;5041359;28;20525;-76
2023/11/27 09:46:13;;;;;;;3.77;3.47;;;15.10;59.70;;;;;;5033043;28;20474;-76
2023/11/27 09:48:44;;;;;;;3.77;3.50;;;15.10;59.90;;;;;;5032192;28;20452;-76
2023/11/27 09:51:13;;;;;;;3.73;3.43;;;15.10;59.70;;;;;;5042602;28;20925;-76
2023/11/27 09:53:47;;;;;;;5.60;3.87;;;15.10;59.70;;;;;;5033319;28;20482;-76
2023/11/27 09:56:17;;;;;;;3.80;3.60;;;15.10;60.00;;;;;;5038043;28;20454;-76
2023/11/27 09:58:47;;;;;;;3.60;3.30;;;15.10;59.80;;;;;;5040455;28;21005;-75
2023/11/27 10:01:19;;;;;;;4.03;3.50;;;15.10;59.50;;;;;;5052250;28;20446;-76
2023/11/27 10:03:48;;;;;;;3.80;3.50;;;15.10;59.60;;;;;;5048925;28;20459;-76
2023/11/27 10:06:17;;;;;;;4.30;4.00;;;15.00;59.80;;;;;;5034415;28;20475;-76
2023/11/27 10:08:45;;;;;;;5.70;3.73;;;15.10;59.60;;;;;;5034338;28;20443;-76
2023/11/27 10:11:14;;;;;;;3.87;3.57;;;15.00;59.80;;;;;;5013851;28;20452;-75
2023/11/27 10:13:42;;;;;;;3.37;3.13;;;15.10;59.70;;;;;;5014079;28;20534;-75
2023/11/27 10:16:32;;;;;;;4.23;3.93;;;15.00;59.50;;;;;;5025376;28;20433;-74
2023/11/27 10:19:05;;;;;;;5.73;3.77;;;15.00;59.50;;;;;;5026257;28;20437;-74
2023/11/27 10:21:34;;;;;;;3.80;3.50;;;15.00;59.50;;;;;;5020388;28;20503;-74
2023/11/27 10:24:08;;;;;;;3.90;3.60;;;15.00;59.40;;;;;;5014676;28;20532;-74
2023/11/27 10:26:40;;;;;;;4.97;4.50;;;15.00;59.60;;;;;;5013499;28;20472;-75
2023/11/27 10:29:08;;;;;;;4.33;3.70;;;15.00;59.70;;;;;;5013751;28;20451;-74
2023/11/27 10:31:39;;;;;;;5.53;4.30;;;15.00;59.60;;;;;;5013208;28;20532;-75
2023/11/27 10:34:08;;;;;;;4.20;3.80;;;15.00;59.40;;;;;;5013559;28;20456;-75
2023/11/27 10:36:36;;;;;;;3.90;3.60;;;15.00;59.70;;;;;;5013368;28;20445;-75
2023/11/27 10:39:04;;;;;;;4.07;3.67;;;15.10;59.60;;;;;;5013680;28;20468;-75
2023/11/27 10:41:33;;;;;;;5.00;4.33;;;15.10;59.60;;;;;;5013517;28;20436;-75
2023/11/27 10:44:02;;;;;;;4.07;3.77;;;15.00;59.40;;;;;;5013674;28;20511;-75
2023/11/27 10:46:31;;;;;;;4.10;3.80;;;15.00;59.70;;;;;;5013247;28;20472;-74
2023/11/27 10:49:01;;;;;;;4.70;3.80;;;15.10;59.60;;;;;;5013289;28;20456;-75
2023/11/27 10:51:31;;;;;;;3.67;3.37;;;15.10;59.70;;;;;;5013136;28;20452;-75
2023/11/27 10:54:00;;;;;;;4.13;3.73;;;15.10;60.40;;;;;;5013021;28;20483;-75
2023/11/27 10:56:30;;;;;;;3.70;3.40;;;15.10;59.40;;;;;;5013171;28;20444;-75
2023/11/27 10:59:04;;;;;;;3.60;3.30;;;15.10;59.70;;;;;;5025999;28;20455;-75
2023/11/27 11:01:33;;;;;;;4.20;3.80;;;15.10;59.90;;;;;;5028704;28;20417;-75
2023/11/27 11:04:09;;;;;;;4.10;3.77;;;15.10;59.80;;;;;;5030026;28;20464;-75
2023/11/27 11:06:40;;;;;;;3.80;3.50;;;15.10;60.00;;;;;;5030266;28;20535;-74
2023/11/27 11:09:12;;;;;;;4.13;3.77;;;15.10;59.80;;;;;;5014478;28;20468;-75
2023/11/27 11:11:42;;;;;;;3.40;3.13;;;15.10;60.00;;;;;;5013314;28;20421;-74
2023/11/27 11:14:13;;;;;;;4.10;3.70;;;15.10;59.80;;;;;;5013067;28;20444;-74
2023/11/27 11:16:44;;;;;;;3.40;3.20;;;15.20;60.00;;;;;;5012907;28;20429;-75
2023/11/27 11:19:16;;;;;;;4.43;4.00;;;15.10;59.90;;;;;;5012930;28;20463;-75
2023/11/27 11:21:52;;;;;;;4.50;4.10;;;15.20;60.10;;;;;;5012486;28;20426;-74
2023/11/27 11:24:25;;;;;;;3.70;3.40;;;15.20;59.90;;;;;;5040081;28;20438;-75
2023/11/27 11:27:02;;;;;;;4.17;3.73;;;15.20;60.00;;;;;;5052547;28;20504;-74
2023/11/27 11:29:33;;;;;;;3.87;3.47;;;15.20;60.00;;;;;;5052501;28;20446;-74
2023/11/27 11:32:03;;;;;;;3.70;3.40;;;15.10;59.90;;;;;;5052318;28;20458;-75
2023/11/27 11:34:37;;;;;;;3.90;3.60;;;15.20;60.00;;;;;;5052440;28;20474;-75
2023/11/27 11:37:06;;;;;;;4.63;3.40;;;15.20;60.20;;;;;;5052282;28;20427;-75
2023/11/27 11:39:36;;;;;;;3.20;2.87;;;15.20;60.00;;;;;;5052586;28;20438;-75
2023/11/27 11:42:04;;;;;;;3.90;3.60;;;15.20;59.90;;;;;;5052380;28;20458;-75
2023/11/27 11:44:34;;;;;;;3.60;3.30;;;15.20;60.20;;;;;;5052045;28;20473;-75
2023/11/27 11:47:08;;;;;;;3.57;3.27;;;15.10;60.70;;;;;;5052081;28;20530;-75
2023/11/27 11:49:38;;;;;;;3.37;3.07;;;15.10;60.20;;;;;;5052195;28;20446;-75
2023/11/27 11:52:09;;;;;;;5.50;3.80;;;15.20;60.20;;;;;;5051953;28;20470;-75
2023/11/27 11:54:38;;;;;;;3.60;3.40;;;15.20;60.10;;;;;;5052112;28;20541;-74
2023/11/27 11:57:17;;;;;;;3.20;2.97;;;15.20;60.10;;;;;;5055065;28;20435;-74
2023/11/27 11:59:47;;;;;;;3.60;3.30;;;15.20;60.30;;;;;;5056174;28;20477;-75
2023/11/27 12:02:17;;;;;;;3.50;3.17;;;15.20;60.30;;;;;;5047596;28;20463;-74
2023/11/27 12:04:51;;;;;;;4.43;3.17;;;15.20;60.40;;;;;;5036026;28;20450;-74
2023/11/27 12:07:20;;;;;;;3.60;3.30;;;15.20;60.10;;;;;;5035074;28;20575;-74
2023/11/27 12:09:49;;;;;;;3.23;3.00;;;15.20;60.40;;;;;;5036113;28;20443;-75
2023/11/27 12:12:19;;;;;;;4.17;3.70;;;15.20;60.30;;;;;;5034641;28;20514;-75
2023/11/27 12:14:47;;;;;;;3.00;2.80;;;15.20;60.10;;;;;;5033451;28;20440;-75
2023/11/27 12:17:16;;;;;;;3.37;3.17;;;15.20;60.20;;;;;;5035473;28;20443;-75
2023/11/27 12:19:50;;;;;;;3.23;3.03;;;15.20;60.20;;;;;;5035703;28;20443;-75
2023/11/27 12:22:19;;;;;;;3.40;3.20;;;15.20;60.50;;;;;;5036411;28;20491;-77
2023/11/27 12:24:47;;;;;;;4.30;3.90;;;15.20;60.50;;;;;;5036351;28;20439;-77
2023/11/27 12:27:16;;;;;;;4.67;3.90;;;15.20;60.20;;;;;;5036193;28;20471;-77
2023/11/27 12:29:46;;;;;;;3.87;3.57;;;15.20;60.30;;;;;;5036328;28;20439;-77
2023/11/27 12:32:19;;;;;;;4.50;3.90;;;15.20;60.50;;;;;;5036933;28;20456;-77
2023/11/27 12:34:50;;;;;;;4.60;4.20;;;15.30;60.40;;;;;;5039040;28;20542;-76
2023/11/27 12:37:18;;;;;;;4.20;3.90;;;15.20;60.20;;;;;;5034867;28;20466;-75
2023/11/27 12:39:52;;;;;;;4.00;3.70;;;15.20;60.40;;;;;;5035722;28;20797;-76
2023/11/27 12:42:20;;;;;;;4.67;3.93;;;15.20;60.50;;;;;;5036227;28;20994;-76
2023/11/27 12:44:49;;;;;;;4.73;4.33;;;15.20;60.10;;;;;;5035620;28;20439;-76
2023/11/27 12:47:19;;;;;;;4.90;4.30;;;15.20;60.20;;;;;;5035908;28;20467;-76
2023/11/27 12:49:53;;;;;;;5.63;4.77;;;15.20;60.30;;;;;;5035724;28;20430;-76
2023/11/27 12:52:21;;;;;;;5.60;5.00;;;15.20;60.20;;;;;;5036346;28;20463;-76
2023/11/27 12:54:54;;;;;;;6.17;5.00;;;15.20;60.50;;;;;;5036116;28;20467;-76
2023/11/27 12:57:24;;;;;;;5.37;4.87;;;15.20;60.30;;;;;;5036530;28;20471;-76
2023/11/27 12:59:52;;;;;;;5.70;4.93;;;15.20;60.10;;;;;;5035753;28;20451;-76
2023/11/27 13:02:25;;;;;;;5.67;5.07;;;15.20;60.30;;;;;;5035829;28;20491;-76